createdAt,value
2023-01-19T00:02:13.208Z,99039.41
2023-01-19T00:07:15.541Z,99035.97
2023-01-19T00:12:17.393Z,99034.22
2023-01-19T00:17:19.308Z,99040.28
2023-01-19T00:22:21.302Z,99022.13
2023-01-19T00:27:23.215Z,99022.97
2023-01-19T00:32:25.173Z,99034.22
2023-01-19T00:37:27.058Z,99028.16
2023-01-19T00:42:28.962Z,98996.16
2023-01-19T00:47:30.850Z,99010.00
2023-01-19T00:52:32.781Z,98997.03
2023-01-19T00:57:34.683Z,99025.56
2023-01-19T01:02:36.786Z,98992.72
2023-01-19T01:07:38.835Z,98990.97
2023-01-19T01:12:40.888Z,99005.66
2023-01-19T01:17:57.089Z,98985.78
2023-01-19T01:22:59.257Z,98985.75
2023-01-19T01:28:01.452Z,98990.06
2023-01-19T01:33:03.560Z,98980.59
2023-01-19T01:38:05.599Z,98992.69
2023-01-19T01:43:14.580Z,99009.97
2023-01-19T01:48:29.224Z,98997.88
2023-01-19T01:53:31.399Z,98993.53
2023-01-19T01:58:33.236Z,99003.94
2023-01-19T02:03:35.088Z,99006.50
2023-01-19T02:08:44.141Z,99000.44
2023-01-19T02:13:46.047Z,98993.53
2023-01-19T02:18:47.952Z,98988.34
2023-01-19T02:23:56.611Z,98974.47
2023-01-19T02:28:59.737Z,98977.97
2023-01-19T02:34:01.976Z,98987.50
2023-01-19T02:39:03.972Z,98987.47
2023-01-19T02:44:07.007Z,98987.47
2023-01-19T02:49:08.949Z,99008.28
2023-01-19T02:54:32.585Z,98989.28
2023-01-19T02:59:40.878Z,98959.88
2023-01-19T03:04:59.377Z,99003.09
2023-01-19T03:10:41.427Z,98997.88
2023-01-19T03:15:58.720Z,98994.41
2023-01-19T03:21:02.229Z,99006.50
2023-01-19T03:26:04.295Z,99015.16
2023-01-19T03:31:12.610Z,99018.59
2023-01-19T03:36:26.780Z,99038.50
2023-01-19T03:41:28.788Z,99017.72
2023-01-19T03:46:30.741Z,99023.78
2023-01-19T03:51:36.247Z,99033.28
2023-01-19T03:56:38.135Z,99053.16
2023-01-19T04:01:40.068Z,99061.81
2023-01-19T04:06:42.818Z,99078.22
2023-01-19T04:11:44.524Z,99096.41
2023-01-19T04:16:47.490Z,99102.50
2023-01-19T04:21:49.601Z,99089.50
2023-01-19T04:26:52.115Z,99092.97
2023-01-19T04:31:53.999Z,99080.84
2023-01-19T04:36:55.857Z,99087.75
2023-01-19T04:41:57.594Z,99089.50
2023-01-19T04:46:59.346Z,99086.03
2023-01-19T04:52:01.127Z,99084.31
2023-01-19T04:57:02.891Z,99094.69
2023-01-19T05:02:04.668Z,99099.88
2023-01-19T05:07:06.434Z,99105.06
2023-01-19T05:12:08.209Z,99122.34
2023-01-19T05:17:10.200Z,99138.81
2023-01-19T05:22:11.956Z,99143.13
2023-01-19T05:27:13.723Z,99147.44
2023-01-19T05:32:15.471Z,99146.56
2023-01-19T05:37:17.230Z,99162.16
2023-01-19T05:42:20.466Z,99151.75
2023-01-19T05:47:22.200Z,99158.69
2023-01-19T05:52:23.944Z,99161.25
2023-01-19T05:57:25.663Z,99178.56
2023-01-19T06:02:27.383Z,99194.16
2023-01-19T06:07:29.325Z,99191.50
2023-01-19T06:12:31.089Z,99201.03
2023-01-19T06:17:33.310Z,99198.41
2023-01-19T06:22:35.135Z,99226.13
2023-01-19T06:27:36.855Z,99229.59
2023-01-19T06:32:38.617Z,99228.72
2023-01-19T06:37:40.764Z,99226.06
2023-01-19T06:42:42.531Z,99218.28
2023-01-19T06:47:44.895Z,99227.81
2023-01-19T06:52:49.285Z,99236.47
2023-01-19T06:57:58.241Z,99220.84
2023-01-19T07:03:00.504Z,99223.44
2023-01-19T07:08:02.574Z,99237.28
2023-01-19T07:13:04.616Z,99250.28
2023-01-19T07:18:06.691Z,99250.25
2023-01-19T07:23:09.244Z,99244.16
2023-01-19T07:28:11.015Z,99256.28
2023-01-19T07:33:12.889Z,99255.44
2023-01-19T07:38:15.183Z,99270.16
2023-01-19T07:43:16.937Z,99281.38
2023-01-19T07:48:18.709Z,99288.31
2023-01-19T07:53:20.483Z,99296.13
2023-01-19T07:58:25.507Z,99308.28
2023-01-19T08:03:27.256Z,99306.53
2023-01-19T08:08:33.001Z,99302.16
2023-01-19T08:13:34.754Z,99310.84
2023-01-19T08:18:36.868Z,99334.25
2023-01-19T08:23:38.705Z,99349.00
2023-01-19T08:28:40.476Z,99358.56
2023-01-19T08:33:42.231Z,99359.38
2023-01-19T08:38:47.448Z,99372.38
2023-01-19T08:43:49.475Z,99368.91
2023-01-19T08:48:51.207Z,99354.16
2023-01-19T08:53:52.953Z,99360.16
2023-01-19T08:59:08.199Z,99371.44
2023-01-19T09:04:11.196Z,99343.72
2023-01-19T09:09:12.933Z,99344.63
2023-01-19T09:14:14.692Z,99338.56
2023-01-19T09:19:16.475Z,99323.78
2023-01-19T09:24:18.212Z,99323.81
2023-01-19T09:29:20.064Z,99322.97
2023-01-19T09:34:21.944Z,99308.19
2023-01-19T09:39:23.661Z,99309.06
2023-01-19T09:44:28.855Z,99308.19
2023-01-19T09:49:36.428Z,99322.03
2023-01-19T09:54:49.849Z,99331.63
2023-01-19T09:59:51.736Z,99340.28
2023-01-19T10:05:14.220Z,99340.28
2023-01-19T10:10:22.712Z,99332.47
2023-01-19T10:15:29.781Z,99336.75
2023-01-19T10:20:35.370Z,99340.28
2023-01-19T10:25:37.154Z,99351.56
2023-01-19T10:30:38.979Z,99336.78
2023-01-19T10:35:40.831Z,99338.53
2023-01-19T10:40:53.571Z,99330.69
2023-01-19T10:45:55.441Z,99355.88
2023-01-19T10:51:03.839Z,99357.59
2023-01-19T10:56:21.017Z,99357.56
2023-01-19T11:01:24.917Z,99361.94
2023-01-19T11:06:28.456Z,99341.97
2023-01-19T11:11:31.869Z,99350.63
2023-01-19T11:16:33.655Z,99367.97
2023-01-19T11:21:35.419Z,99370.63
2023-01-19T11:26:55.103Z,99360.22
2023-01-19T11:32:09.197Z,99364.59
2023-01-19T11:37:16.664Z,99381.06
2023-01-19T11:42:18.791Z,99383.72
2023-01-19T11:47:33.789Z,99388.94
2023-01-19T11:52:53.988Z,99384.59
2023-01-19T11:57:55.705Z,99396.72
2023-01-19T12:03:08.145Z,99396.75
2023-01-19T12:08:14.703Z,99407.16
2023-01-19T12:13:24.583Z,99408.00
2023-01-19T12:18:30.072Z,99427.97
2023-01-19T12:24:07.779Z,99434.00
2023-01-19T12:29:14.323Z,99438.38
2023-01-19T12:34:25.296Z,99439.25
2023-01-19T12:39:27.075Z,99435.75
2023-01-19T12:44:29.367Z,99437.50
2023-01-19T12:49:37.987Z,99454.00
2023-01-19T12:54:56.928Z,99438.38
2023-01-19T13:00:27.895Z,99439.25
2023-01-19T13:05:33.130Z,99432.31
2023-01-19T13:10:53.840Z,99439.25
2023-01-19T13:15:56.178Z,99436.63
2023-01-19T13:21:31.182Z,99447.94
2023-01-19T13:26:40.676Z,99443.56
2023-01-19T13:31:43.364Z,99451.34
2023-01-19T13:36:45.669Z,99446.13
2023-01-19T13:41:47.483Z,99436.56
2023-01-19T13:46:49.287Z,99430.47
2023-01-19T13:52:06.287Z,99429.63
2023-01-19T13:57:23.338Z,99438.25
2023-01-19T14:02:25.296Z,99459.03
2023-01-19T14:07:27.298Z,99473.81
2023-01-19T14:12:29.118Z,99462.53
2023-01-19T14:17:31.085Z,99485.03
2023-01-19T14:22:42.997Z,99491.13
2023-01-19T14:27:44.915Z,99490.25
2023-01-19T14:32:46.685Z,99491.97
2023-01-19T14:37:49.348Z,99485.84
2023-01-19T14:42:58.360Z,99509.25
2023-01-19T14:48:02.490Z,99522.22
2023-01-19T14:53:14.889Z,99536.09
2023-01-19T14:58:18.583Z,99523.09
2023-01-19T15:03:20.380Z,99485.84
2023-01-19T15:08:32.697Z,99466.75
2023-01-19T15:13:34.627Z,99458.06
2023-01-19T15:18:36.567Z,99480.56
2023-01-19T15:23:38.392Z,99504.81
2023-01-19T15:28:40.689Z,99477.16
2023-01-19T15:33:42.741Z,99480.56
2023-01-19T15:38:44.949Z,99472.78
2023-01-19T15:43:46.871Z,99467.53
2023-01-19T15:48:51.359Z,99477.03
2023-01-19T15:53:53.485Z,99468.38
2023-01-19T15:58:55.642Z,99457.16
2023-01-19T16:04:01.811Z,99437.25
2023-01-19T16:09:04.084Z,99432.00
2023-01-19T16:14:05.935Z,99437.16
2023-01-19T16:19:07.709Z,99435.44
2023-01-19T16:24:09.579Z,99431.13
2023-01-19T16:29:11.423Z,99425.91
2023-01-19T16:34:13.377Z,99416.38
2023-01-19T16:39:15.515Z,99413.81
2023-01-19T16:44:17.437Z,99422.50
2023-01-19T16:49:21.527Z,99412.09
2023-01-19T16:54:24.131Z,99414.66
2023-01-19T16:59:26.081Z,99393.91
2023-01-19T17:04:28.128Z,99431.09
2023-01-19T17:09:29.977Z,99421.59
2023-01-19T17:14:31.859Z,99418.19
2023-01-19T17:19:33.681Z,99416.41
2023-01-19T17:24:35.524Z,99415.50
2023-01-19T17:29:37.388Z,99418.16
2023-01-19T17:34:39.364Z,99425.06
2023-01-19T17:39:41.440Z,99418.22
2023-01-19T17:44:43.288Z,99389.66
2023-01-19T17:49:45.115Z,99419.00
2023-01-19T17:54:47.024Z,99420.75
2023-01-19T17:59:48.927Z,99425.09
2023-01-19T18:04:51.717Z,99415.59
2023-01-19T18:09:53.674Z,99410.38
2023-01-19T18:14:55.499Z,99415.53
2023-01-19T18:19:58.165Z,99413.00
2023-01-19T18:24:59.868Z,99403.47
2023-01-19T18:30:01.695Z,99383.56
2023-01-19T18:35:05.612Z,99388.66
2023-01-19T18:40:08.116Z,99387.88
2023-01-19T18:45:10.580Z,99379.22
2023-01-19T18:50:12.799Z,99370.56
2023-01-19T18:55:15.013Z,99386.13
2023-01-19T19:00:17.981Z,99388.75
2023-01-19T19:05:20.012Z,99380.13
2023-01-19T19:10:21.975Z,99379.22
2023-01-19T19:15:23.998Z,99383.59
2023-01-19T19:20:26.145Z,99382.72
2023-01-19T19:25:28.016Z,99391.41
2023-01-19T19:30:29.913Z,99383.63
2023-01-19T19:35:31.807Z,99397.47
2023-01-19T19:40:33.790Z,99396.63
2023-01-19T19:45:35.774Z,99397.50
2023-01-19T19:50:37.876Z,99384.56
2023-01-19T19:55:39.827Z,99385.44
2023-01-19T20:00:41.717Z,99390.66
2023-01-19T20:05:43.644Z,99375.94
2023-01-19T20:10:45.521Z,99401.88
2023-01-19T20:15:47.538Z,99381.97
2023-01-19T20:20:49.360Z,99363.78
2023-01-19T20:25:51.344Z,99356.84
2023-01-19T20:30:53.331Z,99336.94
2023-01-19T20:35:55.273Z,99344.72
2023-01-19T20:40:57.209Z,99341.28
2023-01-19T20:45:59.219Z,99340.38
2023-01-19T20:51:02.705Z,99349.94
2023-01-19T20:56:10.309Z,99343.03
2023-01-19T21:01:19.828Z,99340.44
2023-01-19T21:06:21.976Z,99367.28
2023-01-19T21:11:23.954Z,99350.84
2023-01-19T21:16:26.852Z,99338.75
2023-01-19T21:21:31.481Z,99341.34
2023-01-19T21:26:33.854Z,99348.28
2023-01-19T21:31:35.733Z,99355.19
2023-01-19T21:36:37.669Z,99355.19
2023-01-19T21:41:39.560Z,99364.72
2023-01-19T21:46:41.420Z,99354.31
2023-01-19T21:51:43.373Z,99356.09
2023-01-19T21:56:45.303Z,99360.38
2023-01-19T22:01:47.225Z,99354.34
2023-01-19T22:06:49.353Z,99330.09
2023-01-19T22:11:51.295Z,99335.25
2023-01-19T22:16:53.340Z,99329.22
2023-01-19T22:21:55.283Z,99342.19
2023-01-19T22:26:57.227Z,99336.13
2023-01-19T22:31:59.063Z,99343.06
2023-01-19T22:37:01.064Z,99333.53
2023-01-19T22:42:03.029Z,99341.31
2023-01-19T22:47:05.004Z,99344.75
2023-01-19T22:52:06.906Z,99339.53
2023-01-19T22:57:08.848Z,99349.09
2023-01-19T23:02:10.768Z,99348.19
2023-01-19T23:07:12.687Z,99356.00
2023-01-19T23:12:14.539Z,99357.72
2023-01-19T23:17:16.361Z,99347.31
2023-01-19T23:22:18.270Z,99347.28
2023-01-19T23:27:20.220Z,99349.91
2023-01-19T23:32:22.163Z,99350.81
2023-01-19T23:37:24.023Z,99362.06
2023-01-19T23:42:25.837Z,99354.22
2023-01-19T23:47:27.717Z,99359.41
2023-01-19T23:52:29.606Z,99359.44
2023-01-19T23:57:31.454Z,99354.22
